createdAt,value
2017-12-22T00:02:25.412Z,101435.40
2017-12-22T00:04:53.098Z,101433.27
2017-12-22T00:07:20.763Z,101434.13
2017-12-22T00:09:48.370Z,101426.79
2017-12-22T00:12:16.026Z,101427.14
2017-12-22T00:14:43.631Z,101421.94
2017-12-22T00:17:11.239Z,101417.17
2017-12-22T00:19:38.951Z,101421.83
2017-12-22T00:22:06.618Z,101423.05
2017-12-22T00:24:34.280Z,101422.62
2017-12-22T00:27:02.462Z,101424.05
2017-12-22T00:29:30.066Z,101422.41
2017-12-22T00:31:57.738Z,101425.12
2017-12-22T00:34:25.407Z,101423.86
2017-12-22T00:36:53.011Z,101424.74
2017-12-22T00:39:20.615Z,101417.93
2017-12-22T00:41:48.279Z,101428.27
2017-12-22T00:44:15.939Z,101419.95
2017-12-22T00:46:43.619Z,101415.63
2017-12-22T00:49:11.303Z,101409.68
2017-12-22T00:51:38.910Z,101409.50
2017-12-22T00:54:06.515Z,101412.21
2017-12-22T00:56:34.244Z,101410.11
2017-12-22T00:59:01.925Z,101402.29
2017-12-22T01:01:29.536Z,101400.57
2017-12-22T01:03:57.254Z,101396.63
2017-12-22T01:06:24.901Z,101397.23
2017-12-22T01:08:52.506Z,101390.84
2017-12-22T01:11:20.223Z,101394.80
2017-12-22T01:13:47.827Z,101399.59
2017-12-22T01:16:20.991Z,101401.02
2017-12-22T01:18:54.195Z,101400.23
2017-12-22T01:21:21.911Z,101402.09
2017-12-22T01:23:49.514Z,101394.38
2017-12-22T01:26:17.178Z,101391.44
2017-12-22T01:28:44.899Z,101389.30
2017-12-22T01:31:12.566Z,101383.70
2017-12-22T01:33:40.162Z,101380.98
2017-12-22T01:36:07.899Z,101375.61
2017-12-22T01:38:35.502Z,101372.89
2017-12-22T01:41:03.103Z,101371.29
2017-12-22T01:43:30.771Z,101367.32
2017-12-22T01:45:58.370Z,101362.06
2017-12-22T01:48:26.039Z,101369.55
2017-12-22T01:50:53.706Z,101370.13
2017-12-22T01:53:21.315Z,101365.48
2017-12-22T01:55:48.980Z,101360.56
2017-12-22T01:58:16.659Z,101353.56
2017-12-22T02:00:44.262Z,101353.80
2017-12-22T02:03:11.874Z,101349.44
2017-12-22T02:05:39.530Z,101340.14
2017-12-22T02:08:07.134Z,101343.35
2017-12-22T02:10:34.799Z,101337.16
2017-12-22T02:13:02.486Z,101331.92
2017-12-22T02:15:30.096Z,101332.94
2017-12-22T02:17:57.766Z,101336.16
2017-12-22T02:20:25.487Z,101339.77
2017-12-22T02:22:53.158Z,101337.54
2017-12-22T02:25:20.823Z,101343.45
2017-12-22T02:27:48.527Z,101340.78
2017-12-22T02:30:16.130Z,101336.31
2017-12-22T02:32:43.808Z,101337.63
2017-12-22T02:35:11.526Z,101331.86
2017-12-22T02:37:39.132Z,101330.20
2017-12-22T02:40:06.799Z,101324.36
2017-12-22T02:42:34.463Z,101330.52
2017-12-22T02:45:02.068Z,101334.60
2017-12-22T02:47:29.679Z,101334.89
2017-12-22T02:49:57.339Z,101339.27
2017-12-22T02:52:24.947Z,101347.78
2017-12-22T02:54:52.564Z,101346.42
2017-12-22T02:57:20.284Z,101343.48
2017-12-22T02:59:47.894Z,101342.22
2017-12-22T03:02:15.515Z,101338.09
2017-12-22T03:04:43.182Z,101341.86
2017-12-22T03:07:10.846Z,101342.50
2017-12-22T03:09:38.507Z,101343.49
2017-12-22T03:12:06.163Z,101332.13
2017-12-22T03:14:33.831Z,101340.94
2017-12-22T03:17:01.436Z,101342.09
2017-12-22T03:19:29.103Z,101353.00
2017-12-22T03:21:56.714Z,101349.98
2017-12-22T03:24:24.375Z,101350.87
2017-12-22T03:26:52.040Z,101344.88
2017-12-22T03:29:19.653Z,101341.82
2017-12-22T03:31:47.311Z,101340.04
2017-12-22T03:34:14.966Z,101327.39
2017-12-22T03:36:42.628Z,101324.84
2017-12-22T03:39:10.231Z,101326.78
2017-12-22T03:41:37.888Z,101329.76
2017-12-22T03:44:05.553Z,101336.36
2017-12-22T03:46:33.215Z,101331.39
2017-12-22T03:49:00.870Z,101332.45
2017-12-22T03:51:28.475Z,101336.19
2017-12-22T03:53:56.078Z,101331.22
2017-12-22T03:56:23.763Z,101337.23
2017-12-22T03:58:51.367Z,101328.36
2017-12-22T04:01:18.977Z,101320.48
2017-12-22T04:03:46.630Z,101323.47
2017-12-22T04:06:14.238Z,101323.09
2017-12-22T04:08:41.899Z,101315.28
2017-12-22T04:11:09.578Z,101319.31
2017-12-22T04:13:37.247Z,101317.47
2017-12-22T04:16:04.850Z,101319.18
2017-12-22T04:18:32.567Z,101322.32
2017-12-22T04:21:00.275Z,101321.92
2017-12-22T04:23:27.887Z,101322.69
2017-12-22T04:25:55.603Z,101313.51
2017-12-22T04:28:23.210Z,101315.36
2017-12-22T04:30:50.871Z,101316.86
2017-12-22T04:33:18.531Z,101318.38
2017-12-22T04:35:46.147Z,101311.55
2017-12-22T04:38:13.807Z,101311.17
2017-12-22T04:40:41.521Z,101312.47
2017-12-22T04:43:09.189Z,101307.36
2017-12-22T04:45:36.797Z,101306.48
2017-12-22T04:48:04.543Z,101306.67
2017-12-22T04:50:32.147Z,101303.80
2017-12-22T04:52:59.751Z,101307.87
2017-12-22T04:55:27.446Z,101310.50
2017-12-22T04:57:55.112Z,101315.23
2017-12-22T05:00:22.718Z,101316.92
2017-12-22T05:02:50.439Z,101315.45
2017-12-22T05:05:18.159Z,101314.34
2017-12-22T05:07:45.780Z,101311.41
2017-12-22T05:10:13.438Z,101313.22
2017-12-22T05:12:41.043Z,101310.98
2017-12-22T05:15:08.761Z,101309.25
2017-12-22T05:17:36.420Z,101315.28
2017-12-22T05:20:04.030Z,101311.45
2017-12-22T05:22:31.698Z,101304.72
2017-12-22T05:24:59.351Z,101300.07
2017-12-22T05:27:26.956Z,101302.85
2017-12-22T05:29:54.619Z,101305.59
2017-12-22T05:32:22.346Z,101305.52
2017-12-22T05:34:49.950Z,101302.70
2017-12-22T05:37:17.562Z,101305.41
2017-12-22T05:39:45.226Z,101301.84
2017-12-22T05:42:12.887Z,101299.72
2017-12-22T05:44:40.548Z,101300.15
2017-12-22T05:47:08.220Z,101299.89
2017-12-22T05:49:35.827Z,101300.24
2017-12-22T05:52:03.490Z,101301.45
2017-12-22T05:54:31.147Z,101294.87
2017-12-22T05:56:58.811Z,101283.52
2017-12-22T05:59:26.475Z,101286.05
2017-12-22T06:01:54.171Z,101287.15
2017-12-22T06:04:21.831Z,101292.89
2017-12-22T06:06:49.437Z,101292.99
2017-12-22T06:09:17.118Z,101287.60
2017-12-22T06:11:44.726Z,101288.92
2017-12-22T06:14:12.387Z,101290.10
2017-12-22T06:16:40.103Z,101292.92
2017-12-22T06:19:07.763Z,101292.97
2017-12-22T06:21:35.423Z,101294.59
2017-12-22T06:24:03.182Z,101288.85
2017-12-22T06:26:30.782Z,101288.86
2017-12-22T06:28:58.384Z,101292.45
2017-12-22T06:31:26.042Z,101296.06
2017-12-22T06:33:53.654Z,101291.66
2017-12-22T06:36:21.259Z,101293.03
2017-12-22T06:38:48.915Z,101285.60
2017-12-22T06:41:16.585Z,101275.97
2017-12-22T06:43:44.194Z,101279.44
2017-12-22T06:46:11.846Z,101277.88
2017-12-22T06:48:39.515Z,101275.59
2017-12-22T06:51:07.179Z,101270.75
2017-12-22T06:53:34.854Z,101275.52
2017-12-22T06:56:02.519Z,101271.28
2017-12-22T06:58:30.178Z,101286.37
2017-12-22T07:00:57.899Z,101293.45
2017-12-22T07:03:25.563Z,101288.22
2017-12-22T07:05:53.166Z,101290.70
2017-12-22T07:08:20.846Z,101286.28
2017-12-22T07:10:48.449Z,101285.92
2017-12-22T07:13:16.054Z,101274.58
2017-12-22T07:15:43.710Z,101274.31
2017-12-22T07:18:11.318Z,101277.02
2017-12-22T07:20:38.979Z,101280.63
2017-12-22T07:23:06.699Z,101277.25
2017-12-22T07:25:34.307Z,101276.66
2017-12-22T07:28:01.918Z,101272.36
2017-12-22T07:30:29.575Z,101267.57
2017-12-22T07:32:57.239Z,101272.52
2017-12-22T07:35:24.903Z,101278.14
2017-12-22T07:37:52.570Z,101283.41
2017-12-22T07:40:20.174Z,101284.05
2017-12-22T07:42:47.843Z,101285.76
2017-12-22T07:45:15.563Z,101287.10
2017-12-22T07:47:43.230Z,101293.69
2017-12-22T07:50:10.847Z,101293.20
2017-12-22T07:52:38.503Z,101291.53
2017-12-22T07:55:06.107Z,101289.64
2017-12-22T07:57:33.703Z,101291.32
2017-12-22T08:00:01.450Z,101293.57
2017-12-22T08:02:29.050Z,101291.95
2017-12-22T08:04:56.707Z,101283.78
2017-12-22T08:07:24.360Z,101293.83
2017-12-22T08:09:51.970Z,101290.87
2017-12-22T08:12:19.564Z,101290.56
2017-12-22T08:14:47.216Z,101297.71
2017-12-22T08:17:14.813Z,101293.34
2017-12-22T08:19:42.414Z,101292.27
2017-12-22T08:22:10.123Z,101293.96
2017-12-22T08:24:37.783Z,101286.48
2017-12-22T08:27:05.386Z,101282.32
2017-12-22T08:29:33.083Z,101274.64
2017-12-22T08:32:00.710Z,101274.11
2017-12-22T08:34:28.310Z,101267.70
2017-12-22T08:36:56.040Z,101253.00
2017-12-22T08:39:23.651Z,101249.50
2017-12-22T08:41:51.311Z,101252.61
2017-12-22T08:44:18.955Z,101246.05
2017-12-22T08:46:46.585Z,101239.91
2017-12-22T08:49:14.279Z,101248.69
2017-12-22T08:51:41.933Z,101241.08
2017-12-22T08:54:09.579Z,101235.88
2017-12-22T08:56:37.191Z,101238.00
2017-12-22T08:59:04.847Z,101231.83
2017-12-22T09:01:32.507Z,101232.81
2017-12-22T09:04:00.114Z,101220.61
2017-12-22T09:06:27.767Z,101220.98
2017-12-22T09:08:55.359Z,101220.07
2017-12-22T09:11:22.966Z,101215.19
2017-12-22T09:13:50.618Z,101223.16
2017-12-22T09:16:18.223Z,101219.66
2017-12-22T09:18:45.887Z,101224.50
2017-12-22T09:21:13.543Z,101212.93
2017-12-22T09:23:41.147Z,101213.61
2017-12-22T09:26:08.751Z,101193.09
2017-12-22T09:28:36.407Z,101195.16
2017-12-22T09:31:04.015Z,101183.19
2017-12-22T09:33:31.683Z,101173.88
2017-12-22T09:35:59.336Z,101165.63
2017-12-22T09:38:27.003Z,101166.00
2017-12-22T09:40:54.607Z,101163.88
2017-12-22T09:43:22.367Z,101159.34
2017-12-22T09:45:50.023Z,101152.63
2017-12-22T09:48:17.667Z,101148.89
2017-12-22T09:50:45.379Z,101148.16
2017-12-22T09:53:12.979Z,101149.45
2017-12-22T09:55:40.641Z,101155.22
2017-12-22T09:58:08.299Z,101151.56
2017-12-22T10:00:35.999Z,101143.17
2017-12-22T10:03:03.603Z,101143.76
2017-12-22T10:05:31.309Z,101138.36
2017-12-22T10:07:58.975Z,101130.33
2017-12-22T10:10:26.635Z,101123.41
2017-12-22T10:12:54.295Z,101117.16
2017-12-22T10:15:21.911Z,101112.67
2017-12-22T10:17:49.593Z,101109.70
2017-12-22T10:20:17.294Z,101109.58
2017-12-22T10:22:44.899Z,101102.17
2017-12-22T10:25:12.562Z,101097.41
2017-12-22T10:27:40.242Z,101100.90
2017-12-22T10:30:07.851Z,101101.34
2017-12-22T10:32:35.451Z,101090.66
2017-12-22T10:35:03.117Z,101080.63
2017-12-22T10:37:30.727Z,101078.16
2017-12-22T10:39:58.327Z,101070.18
2017-12-22T10:42:26.039Z,101082.23
2017-12-22T10:44:53.703Z,101077.34
2017-12-22T10:47:21.371Z,101073.66
2017-12-22T10:49:49.039Z,101069.36
2017-12-22T10:52:16.704Z,101075.14
2017-12-22T10:54:44.374Z,101066.06
2017-12-22T10:57:11.987Z,101067.87
2017-12-22T10:59:39.624Z,101061.33
2017-12-22T11:02:07.327Z,101063.52
2017-12-22T11:04:34.942Z,101060.30
2017-12-22T11:07:02.551Z,101060.19
2017-12-22T11:09:30.167Z,101057.94
2017-12-22T11:11:57.834Z,101056.91
2017-12-22T11:14:25.562Z,101042.89
2017-12-22T11:16:53.232Z,101038.44
2017-12-22T11:19:20.903Z,101034.64
2017-12-22T11:21:48.586Z,101024.92
2017-12-22T11:24:16.199Z,101027.42
2017-12-22T11:26:43.867Z,101018.80
2017-12-22T11:29:11.480Z,101011.47
2017-12-22T11:31:39.160Z,101004.23
2017-12-22T11:34:06.785Z,100999.73
2017-12-22T11:36:34.447Z,100998.03
2017-12-22T11:39:02.114Z,100986.53
2017-12-22T11:41:29.739Z,100995.03
2017-12-22T11:43:58.319Z,100982.84
2017-12-22T11:46:25.965Z,100981.12
2017-12-22T11:48:53.597Z,100977.88
2017-12-22T11:51:21.258Z,100983.39
2017-12-22T11:53:48.940Z,100972.98
2017-12-22T11:56:16.554Z,100969.23
2017-12-22T11:58:44.167Z,100975.09
2017-12-22T12:01:11.783Z,100972.75
2017-12-22T12:03:39.510Z,100986.41
2017-12-22T12:06:07.175Z,100980.98
2017-12-22T12:08:34.839Z,100984.94
2017-12-22T12:11:02.513Z,100980.72
2017-12-22T12:13:30.175Z,100991.36
2017-12-22T12:15:57.860Z,100985.67
2017-12-22T12:18:25.523Z,100987.09
2017-12-22T12:20:53.127Z,100977.70
2017-12-22T12:24:41.795Z,100976.45
2017-12-22T12:27:09.451Z,100975.00
2017-12-22T12:29:37.174Z,100980.86
2017-12-22T12:32:04.783Z,100981.23
2017-12-22T12:39:41.233Z,100974.04
2017-12-22T12:42:08.899Z,100973.44
2017-12-22T12:44:36.565Z,100969.21
2017-12-22T12:47:04.175Z,100962.46
2017-12-22T12:49:31.775Z,100956.02
2017-12-22T12:51:59.447Z,100956.45
2017-12-22T12:54:27.055Z,100963.48
2017-12-22T12:56:54.655Z,100963.09
2017-12-22T12:59:22.324Z,100962.92
2017-12-22T13:01:49.927Z,100965.48
2017-12-22T13:04:17.677Z,100971.84
2017-12-22T13:06:45.287Z,100969.84
2017-12-22T13:09:12.886Z,100972.97
2017-12-22T13:11:40.593Z,100966.08
2017-12-22T13:14:08.209Z,100973.67
2017-12-22T13:16:35.927Z,100971.97
2017-12-22T13:19:03.535Z,100960.45
2017-12-22T13:21:31.176Z,100952.52
2017-12-22T13:23:58.843Z,100950.39
2017-12-22T13:26:26.504Z,100953.16
2017-12-22T13:28:54.187Z,100947.66
2017-12-22T13:31:21.787Z,100938.14
2017-12-22T13:33:49.391Z,100935.38
2017-12-22T13:36:17.010Z,100928.14
2017-12-22T13:38:44.614Z,100930.55
2017-12-22T13:41:12.332Z,100935.89
2017-12-22T13:43:39.991Z,100932.44
2017-12-22T13:46:07.599Z,100943.41
2017-12-22T13:48:35.211Z,100942.36
2017-12-22T13:51:02.827Z,100938.14
2017-12-22T13:53:30.495Z,100945.41
2017-12-22T13:55:58.099Z,100942.84
2017-12-22T13:58:25.715Z,100944.69
2017-12-22T14:00:53.326Z,100953.55
2017-12-22T14:03:20.932Z,100949.61
2017-12-22T14:05:48.643Z,100931.92
2017-12-22T14:08:16.312Z,100930.34
2017-12-22T14:10:43.923Z,100928.06
2017-12-22T14:13:11.603Z,100932.61
2017-12-22T14:15:39.276Z,100936.02
2017-12-22T14:18:06.992Z,100933.35
2017-12-22T14:20:34.676Z,100929.42
2017-12-22T14:23:02.310Z,100918.03
2017-12-22T14:25:29.922Z,100920.45
2017-12-22T14:27:57.584Z,100914.27
2017-12-22T14:30:25.239Z,100915.49
2017-12-22T14:32:52.844Z,100908.93
2017-12-22T14:35:20.447Z,100915.13
2017-12-22T14:37:48.114Z,100912.69
2017-12-22T14:40:15.791Z,100913.27
2017-12-22T14:42:43.508Z,100910.97
2017-12-22T14:45:11.107Z,100911.41
2017-12-22T14:47:38.715Z,100912.11
2017-12-22T14:50:06.323Z,100908.16
2017-12-22T14:52:33.918Z,100908.42
2017-12-22T14:55:01.583Z,100913.48
2017-12-22T14:57:29.182Z,100920.45
2017-12-22T14:59:56.783Z,100919.01
2017-12-22T15:02:24.394Z,100916.74
2017-12-22T15:04:52.103Z,100912.56
2017-12-22T15:07:19.770Z,100911.58
2017-12-22T15:09:47.379Z,100910.34
2017-12-22T15:12:15.043Z,100905.47
2017-12-22T15:14:42.655Z,100908.16
2017-12-22T15:17:10.268Z,100904.44
2017-12-22T15:19:37.961Z,100905.72
2017-12-22T15:22:05.640Z,100899.52
2017-12-22T15:24:33.250Z,100900.02
2017-12-22T15:27:00.862Z,100904.44
2017-12-22T15:29:28.531Z,100921.03
2017-12-22T15:31:56.242Z,100916.62
2017-12-22T15:34:23.846Z,100918.61
2017-12-22T15:36:51.466Z,100916.82
2017-12-22T15:39:19.155Z,100910.67
2017-12-22T15:41:46.763Z,100914.30
2017-12-22T15:44:14.418Z,100909.39
2017-12-22T15:46:42.029Z,100914.77
2017-12-22T15:49:09.695Z,100907.77
2017-12-22T15:51:37.375Z,100910.92
2017-12-22T15:54:05.034Z,100917.81
2017-12-22T15:56:32.710Z,100906.20
2017-12-22T15:59:00.380Z,100903.45
2017-12-22T16:01:28.002Z,100904.68
2017-12-22T16:03:55.615Z,100904.33
2017-12-22T16:06:23.279Z,100904.87
2017-12-22T16:08:50.942Z,100898.27
2017-12-22T16:11:18.632Z,100900.91
2017-12-22T16:13:46.246Z,100899.67
2017-12-22T16:16:13.931Z,100898.82
2017-12-22T16:18:41.659Z,100888.53
2017-12-22T16:21:09.401Z,100890.90
2017-12-22T16:23:37.028Z,100898.02
2017-12-22T16:26:04.699Z,100898.67
2017-12-22T16:28:32.317Z,100897.44
2017-12-22T16:30:59.926Z,100894.87
2017-12-22T16:33:27.648Z,100893.94
2017-12-22T16:35:55.260Z,100891.22
2017-12-22T16:38:22.877Z,100892.03
2017-12-22T16:40:50.560Z,100881.16
2017-12-22T16:43:18.166Z,100885.47
2017-12-22T16:45:45.836Z,100888.49
2017-12-22T16:48:13.508Z,100877.70
2017-12-22T16:50:41.115Z,100877.31
2017-12-22T16:53:08.743Z,100876.14
2017-12-22T16:55:36.414Z,100875.91
2017-12-22T16:58:04.090Z,100873.07
2017-12-22T17:00:31.707Z,100867.98
2017-12-22T17:02:59.387Z,100869.46
2017-12-22T17:05:27.068Z,100867.94
2017-12-22T17:07:54.680Z,100864.14
2017-12-22T17:10:22.354Z,100862.12
2017-12-22T17:12:49.966Z,100866.47
2017-12-22T17:15:17.578Z,100869.88
2017-12-22T17:17:45.194Z,100868.30
2017-12-22T17:20:12.868Z,100864.59
2017-12-22T17:22:40.539Z,100867.40
2017-12-22T17:25:08.147Z,100878.81
2017-12-22T17:27:35.752Z,100876.14
2017-12-22T17:30:03.378Z,100882.12
2017-12-22T17:32:30.986Z,100880.25
2017-12-22T17:34:58.648Z,100881.15
2017-12-22T17:37:26.255Z,100869.84
2017-12-22T17:39:53.868Z,100868.25
2017-12-22T17:42:21.483Z,100870.89
2017-12-22T17:44:49.151Z,100860.52
2017-12-22T17:47:16.867Z,100857.30
2017-12-22T17:49:44.535Z,100857.09
2017-12-22T17:52:12.142Z,100857.59
2017-12-22T17:54:39.920Z,100862.48
2017-12-22T17:57:07.533Z,100862.09
2017-12-22T17:59:35.194Z,100861.02
2017-12-22T18:02:02.807Z,100863.24
2017-12-22T18:04:30.420Z,100867.67
2017-12-22T18:06:58.130Z,100859.08
2017-12-22T18:09:25.763Z,100858.23
2017-12-22T18:11:53.446Z,100867.80
2017-12-22T18:14:21.062Z,100878.12
2017-12-22T18:16:48.740Z,100868.75
2017-12-22T18:19:16.431Z,100866.08
2017-12-22T18:21:44.047Z,100868.75
2017-12-22T18:24:11.784Z,100865.38
2017-12-22T18:26:39.391Z,100862.07
2017-12-22T18:29:07.059Z,100864.83
2017-12-22T18:31:34.742Z,100864.31
2017-12-22T18:34:02.394Z,100868.96
2017-12-22T18:36:30.147Z,100873.27
2017-12-22T18:38:57.755Z,100875.81
2017-12-22T18:41:25.362Z,100875.89
2017-12-22T18:43:53.056Z,100874.47
2017-12-22T18:46:20.727Z,100867.71
2017-12-22T18:48:48.422Z,100878.09
2017-12-22T18:51:16.030Z,100869.94
2017-12-22T18:53:43.649Z,100867.02
2017-12-22T18:56:11.332Z,100870.44
2017-12-22T18:58:38.954Z,100864.09
2017-12-22T19:01:06.654Z,100867.95
2017-12-22T19:03:34.265Z,100868.60
2017-12-22T19:06:01.880Z,100870.92
2017-12-22T19:08:29.498Z,100874.16
2017-12-22T19:10:57.167Z,100872.49
2017-12-22T19:13:24.838Z,100873.06
2017-12-22T19:15:52.447Z,100874.45
2017-12-22T19:18:20.054Z,100878.88
2017-12-22T19:20:47.675Z,100872.20
2017-12-22T19:23:15.282Z,100871.85
2017-12-22T19:25:42.943Z,100865.61
2017-12-22T19:28:10.547Z,100871.75
2017-12-22T19:30:38.154Z,100860.41
2017-12-22T19:33:05.778Z,100857.77
2017-12-22T19:35:33.442Z,100852.28
2017-12-22T19:38:01.106Z,100851.69
2017-12-22T19:40:28.714Z,100853.61
2017-12-22T19:42:56.384Z,100847.27
2017-12-22T19:45:24.004Z,100854.25
2017-12-22T19:47:51.716Z,100853.72
2017-12-22T19:50:19.435Z,100847.94
2017-12-22T19:52:47.099Z,100846.13
2017-12-22T19:55:14.707Z,100851.75
2017-12-22T19:57:42.346Z,100853.95
2017-12-22T20:00:09.966Z,100855.66
2017-12-22T20:02:37.638Z,100854.33
2017-12-22T20:05:05.308Z,100857.91
2017-12-22T20:07:32.911Z,100852.27
2017-12-22T20:10:00.591Z,100848.06
2017-12-22T20:12:28.198Z,100837.05
2017-12-22T20:14:55.915Z,100838.41
2017-12-22T20:17:23.587Z,100836.47
2017-12-22T20:19:52.118Z,100829.80
2017-12-22T20:22:19.739Z,100825.56
2017-12-22T20:24:47.406Z,100825.83
2017-12-22T20:27:15.062Z,100832.04
2017-12-22T20:29:42.667Z,100827.84
2017-12-22T20:32:10.339Z,100826.72
2017-12-22T20:34:37.954Z,100825.50
2017-12-22T20:37:05.566Z,100825.32
2017-12-22T20:39:33.296Z,100822.22
2017-12-22T20:42:00.903Z,100831.23
2017-12-22T20:44:28.575Z,100826.96
2017-12-22T20:46:56.191Z,100822.41
2017-12-22T20:49:23.806Z,100815.05
2017-12-22T20:51:51.467Z,100812.44
2017-12-22T20:54:19.135Z,100816.89
2017-12-22T20:56:46.795Z,100817.95
2017-12-22T20:59:14.410Z,100805.58
2017-12-22T21:01:42.022Z,100800.84
2017-12-22T21:04:09.675Z,100793.27
2017-12-22T21:06:37.278Z,100790.42
2017-12-22T21:09:04.944Z,100799.44
2017-12-22T21:11:32.559Z,100791.30
2017-12-22T21:14:00.162Z,100794.97
2017-12-22T21:16:27.818Z,100788.31
2017-12-22T21:18:55.423Z,100787.70
2017-12-22T21:21:23.029Z,100787.15
2017-12-22T21:23:50.650Z,100791.97
2017-12-22T21:26:18.251Z,100782.95
2017-12-22T21:28:45.902Z,100781.16
2017-12-22T21:31:13.563Z,100777.48
2017-12-22T21:33:41.226Z,100777.23
2017-12-22T21:36:08.838Z,100779.79
2017-12-22T21:38:36.448Z,100776.21
2017-12-22T21:41:04.103Z,100763.48
2017-12-22T21:43:31.714Z,100761.91
2017-12-22T21:45:59.419Z,100760.23
2017-12-22T21:48:27.105Z,100762.48
2017-12-22T21:50:54.719Z,100750.41
2017-12-22T21:53:22.451Z,100739.84
2017-12-22T21:55:50.059Z,100729.53
2017-12-22T21:58:17.678Z,100732.14
2017-12-22T22:00:45.291Z,100720.10
2017-12-22T22:03:12.903Z,100726.94
2017-12-22T22:05:40.619Z,100727.39
2017-12-22T22:08:08.276Z,100723.46
2017-12-22T22:10:35.878Z,100716.20
2017-12-22T22:13:03.548Z,100712.89
2017-12-22T22:15:31.215Z,100717.40
2017-12-22T22:17:58.882Z,100712.59
2017-12-22T22:20:26.487Z,100710.36
2017-12-22T22:22:54.143Z,100710.89
2017-12-22T22:25:21.754Z,100708.22
2017-12-22T22:27:49.358Z,100712.08
2017-12-22T22:30:17.023Z,100696.93
2017-12-22T22:32:44.688Z,100695.44
2017-12-22T22:35:12.343Z,100695.74
2017-12-22T22:37:39.954Z,100689.61
2017-12-22T22:40:07.619Z,100687.09
2017-12-22T22:42:35.359Z,100688.26
2017-12-22T22:45:03.059Z,100687.22
2017-12-22T22:47:30.667Z,100688.84
2017-12-22T22:49:58.279Z,100683.51
2017-12-22T22:52:25.878Z,100684.15
2017-12-22T22:54:53.620Z,100685.25
2017-12-22T22:57:21.279Z,100674.98
2017-12-22T22:59:48.874Z,100673.09
2017-12-22T23:02:16.571Z,100667.80
2017-12-22T23:04:44.179Z,100674.08
2017-12-22T23:07:11.834Z,100673.61
2017-12-22T23:09:39.430Z,100678.72
2017-12-22T23:12:07.026Z,100682.78
2017-12-22T23:14:34.630Z,100678.47
2017-12-22T23:17:02.226Z,100678.50
2017-12-22T23:19:29.874Z,100678.79
2017-12-22T23:21:57.470Z,100670.25
2017-12-22T23:24:25.071Z,100659.77
2017-12-22T23:26:52.738Z,100645.98
2017-12-22T23:29:20.334Z,100645.05
2017-12-22T23:31:54.714Z,100644.88
2017-12-22T23:34:22.327Z,100631.88
2017-12-22T23:36:49.995Z,100639.17
2017-12-22T23:39:17.663Z,100634.27
2017-12-22T23:41:45.266Z,100629.34
2017-12-22T23:44:12.878Z,100633.04
2017-12-22T23:46:40.498Z,100626.30
2017-12-22T23:49:08.103Z,100632.47
2017-12-22T23:51:35.780Z,100634.60
2017-12-22T23:54:03.396Z,100641.13
2017-12-22T23:56:31.067Z,100638.27
2017-12-22T23:58:58.678Z,100648.88
